sensor_id;sensor_type;location;lat;lon;timestamp;pressure;altitude;pressure_sealevel;temperature;humidity
9822;BME280;4950;46.042;14.472;2022-07-24T00:00:40;98067.22;;;26.66;57.52
9822;BME280;4950;46.042;14.472;2022-07-24T00:03:07;98079.25;;;26.53;58.65
9822;BME280;4950;46.042;14.472;2022-07-24T00:05:34;98092.31;;;26.44;59.15
9822;BME280;4950;46.042;14.472;2022-07-24T00:08:00;98105.41;;;26.35;58.97
9822;BME280;4950;46.042;14.472;2022-07-24T00:10:27;98119.81;;;26.24;59.17
9822;BME280;4950;46.042;14.472;2022-07-24T00:12:55;98124.34;;;26.24;59.53
9822;BME280;4950;46.042;14.472;2022-07-24T00:15:22;98148.28;;;26.18;60.87
9822;BME280;4950;46.042;14.472;2022-07-24T00:17:48;98169.34;;;26.10;61.94
9822;BME280;4950;46.042;14.472;2022-07-24T00:20:16;98191.72;;;26.04;62.40
9822;BME280;4950;46.042;14.472;2022-07-24T00:22:42;98188.47;;;25.81;63.31
9822;BME280;4950;46.042;14.472;2022-07-24T00:25:09;98174.91;;;25.77;63.10
9822;BME280;4950;46.042;14.472;2022-07-24T00:27:36;98170.66;;;25.76;64.21
9822;BME280;4950;46.042;14.472;2022-07-24T00:30:05;98169.06;;;25.75;66.96
9822;BME280;4950;46.042;14.472;2022-07-24T00:32:31;98164.28;;;25.72;68.31
9822;BME280;4950;46.042;14.472;2022-07-24T00:34:58;98175.97;;;25.71;69.27
9822;BME280;4950;46.042;14.472;2022-07-24T00:37:24;98189.53;;;25.70;69.46
9822;BME280;4950;46.042;14.472;2022-07-24T00:39:52;98196.44;;;25.55;69.05
9822;BME280;4950;46.042;14.472;2022-07-24T00:42:19;98198.25;;;25.34;70.08
9822;BME280;4950;46.042;14.472;2022-07-24T00:44:45;98191.03;;;25.19;69.42
9822;BME280;4950;46.042;14.472;2022-07-24T00:47:13;98194.44;;;25.15;69.49
9822;BME280;4950;46.042;14.472;2022-07-24T00:49:40;98188.84;;;25.06;70.52
9822;BME280;4950;46.042;14.472;2022-07-24T00:52:06;98181.97;;;25.10;70.76
9822;BME280;4950;46.042;14.472;2022-07-24T00:54:33;98172.66;;;25.13;71.09
9822;BME280;4950;46.042;14.472;2022-07-24T00:56:59;98156.19;;;25.16;71.58
9822;BME280;4950;46.042;14.472;2022-07-24T00:59:26;98181.19;;;25.20;72.77
9822;BME280;4950;46.042;14.472;2022-07-24T01:01:53;98186.03;;;24.70;73.37
9822;BME280;4950;46.042;14.472;2022-07-24T01:04:21;98207.00;;;24.29;74.17
9822;BME280;4950;46.042;14.472;2022-07-24T01:06:48;98207.97;;;24.13;75.77
9822;BME280;4950;46.042;14.472;2022-07-24T01:09:15;98210.06;;;24.11;75.97
9822;BME280;4950;46.042;14.472;2022-07-24T01:11:42;98211.47;;;24.18;75.92
9822;BME280;4950;46.042;14.472;2022-07-24T01:14:09;98208.56;;;24.25;76.40
9822;BME280;4950;46.042;14.472;2022-07-24T01:16:37;98208.91;;;24.34;75.99
9822;BME280;4950;46.042;14.472;2022-07-24T01:19:04;98199.63;;;24.36;76.12
9822;BME280;4950;46.042;14.472;2022-07-24T01:21:32;98198.84;;;24.36;76.68
9822;BME280;4950;46.042;14.472;2022-07-24T01:23:59;98202.81;;;24.38;77.02
9822;BME280;4950;46.042;14.472;2022-07-24T01:26:26;98217.06;;;24.22;78.16
9822;BME280;4950;46.042;14.472;2022-07-24T01:28:53;98224.72;;;24.18;77.74
9822;BME280;4950;46.042;14.472;2022-07-24T01:31:20;98220.22;;;24.19;78.51
9822;BME280;4950;46.042;14.472;2022-07-24T01:33:46;98202.22;;;24.26;77.67
9822;BME280;4950;46.042;14.472;2022-07-24T01:36:13;98190.25;;;24.23;77.29
9822;BME280;4950;46.042;14.472;2022-07-24T01:38:41;98193.44;;;24.20;77.64
9822;BME280;4950;46.042;14.472;2022-07-24T01:41:07;98185.75;;;24.24;77.32
9822;BME280;4950;46.042;14.472;2022-07-24T01:43:34;98178.63;;;24.30;77.26
9822;BME280;4950;46.042;14.472;2022-07-24T01:46:00;98175.16;;;24.29;78.39
9822;BME280;4950;46.042;14.472;2022-07-24T01:48:27;98177.03;;;24.29;78.14
9822;BME280;4950;46.042;14.472;2022-07-24T01:50:54;98176.97;;;24.18;78.57
9822;BME280;4950;46.042;14.472;2022-07-24T01:53:20;98179.63;;;23.86;79.59
9822;BME280;4950;46.042;14.472;2022-07-24T01:55:50;98174.72;;;23.73;80.43
9822;BME280;4950;46.042;14.472;2022-07-24T01:58:17;98163.78;;;23.64;81.10
9822;BME280;4950;46.042;14.472;2022-07-24T02:00:45;98156.94;;;23.68;82.11
9822;BME280;4950;46.042;14.472;2022-07-24T02:03:12;98153.00;;;23.76;82.19
9822;BME280;4950;46.042;14.472;2022-07-24T02:05:39;98149.44;;;23.87;82.41
9822;BME280;4950;46.042;14.472;2022-07-24T02:08:06;98151.28;;;23.87;82.62
9822;BME280;4950;46.042;14.472;2022-07-24T02:10:32;98147.06;;;23.91;82.12
9822;BME280;4950;46.042;14.472;2022-07-24T02:13:00;98155.28;;;23.94;82.22
9822;BME280;4950;46.042;14.472;2022-07-24T02:15:27;98169.31;;;23.90;81.39
9822;BME280;4950;46.042;14.472;2022-07-24T02:17:57;98175.16;;;23.87;81.21
9822;BME280;4950;46.042;14.472;2022-07-24T02:20:24;98178.50;;;23.77;80.23
9822;BME280;4950;46.042;14.472;2022-07-24T02:22:51;98181.09;;;23.72;80.30
9822;BME280;4950;46.042;14.472;2022-07-24T02:25:18;98186.94;;;23.74;80.84
9822;BME280;4950;46.042;14.472;2022-07-24T02:27:45;98191.09;;;23.64;81.32
9822;BME280;4950;46.042;14.472;2022-07-24T02:30:14;98187.03;;;23.57;81.81
9822;BME280;4950;46.042;14.472;2022-07-24T02:32:41;98185.75;;;23.59;81.61
9822;BME280;4950;46.042;14.472;2022-07-24T02:35:09;98178.28;;;23.56;81.71
9822;BME280;4950;46.042;14.472;2022-07-24T02:37:37;98170.41;;;23.61;81.40
9822;BME280;4950;46.042;14.472;2022-07-24T02:40:07;98159.56;;;23.68;82.19
9822;BME280;4950;46.042;14.472;2022-07-24T02:42:34;98177.09;;;23.69;81.39
9822;BME280;4950;46.042;14.472;2022-07-24T02:45:01;98169.84;;;23.59;81.54
9822;BME280;4950;46.042;14.472;2022-07-24T02:47:29;98168.53;;;23.62;81.95
9822;BME280;4950;46.042;14.472;2022-07-24T02:49:55;98175.16;;;23.59;81.48
9822;BME280;4950;46.042;14.472;2022-07-24T02:52:22;98187.56;;;23.54;81.85
9822;BME280;4950;46.042;14.472;2022-07-24T02:54:49;98192.78;;;23.49;81.39
9822;BME280;4950;46.042;14.472;2022-07-24T02:57:15;98200.75;;;23.49;81.94
9822;BME280;4950;46.042;14.472;2022-07-24T02:59:42;98203.16;;;23.50;81.59
9822;BME280;4950;46.042;14.472;2022-07-24T03:02:11;98207.66;;;23.50;82.24
9822;BME280;4950;46.042;14.472;2022-07-24T03:04:39;98214.38;;;23.57;82.08
9822;BME280;4950;46.042;14.472;2022-07-24T03:07:05;98219.41;;;23.59;82.35
9822;BME280;4950;46.042;14.472;2022-07-24T03:09:32;98214.34;;;23.30;83.86
9822;BME280;4950;46.042;14.472;2022-07-24T03:11:58;98220.16;;;23.05;84.55
9822;BME280;4950;46.042;14.472;2022-07-24T03:14:25;98219.81;;;22.79;85.54
9822;BME280;4950;46.042;14.472;2022-07-24T03:16:51;98223.69;;;22.72;85.19
9822;BME280;4950;46.042;14.472;2022-07-24T03:19:18;98223.25;;;22.41;86.30
9822;BME280;4950;46.042;14.472;2022-07-24T03:21:46;98224.50;;;22.21;87.17
9822;BME280;4950;46.042;14.472;2022-07-24T03:24:13;98218.16;;;22.22;87.27
9822;BME280;4950;46.042;14.472;2022-07-24T03:26:39;98209.59;;;22.32;87.55
9822;BME280;4950;46.042;14.472;2022-07-24T03:29:06;98212.47;;;22.47;87.07
9822;BME280;4950;46.042;14.472;2022-07-24T03:31:32;98208.94;;;22.59;86.92
9822;BME280;4950;46.042;14.472;2022-07-24T03:33:59;98210.03;;;22.63;86.81
9822;BME280;4950;46.042;14.472;2022-07-24T03:36:26;98206.97;;;22.71;86.26
9822;BME280;4950;46.042;14.472;2022-07-24T03:38:54;98206.56;;;22.79;86.02
9822;BME280;4950;46.042;14.472;2022-07-24T03:41:21;98209.03;;;22.86;85.53
9822;BME280;4950;46.042;14.472;2022-07-24T03:43:47;98205.91;;;22.89;85.21
9822;BME280;4950;46.042;14.472;2022-07-24T03:46:14;98199.06;;;22.93;84.22
9822;BME280;4950;46.042;14.472;2022-07-24T03:48:40;98204.34;;;22.93;83.68
9822;BME280;4950;46.042;14.472;2022-07-24T03:51:07;98212.53;;;22.92;83.06
9822;BME280;4950;46.042;14.472;2022-07-24T03:53:33;98235.31;;;22.93;82.81
9822;BME280;4950;46.042;14.472;2022-07-24T03:56:03;98230.75;;;22.88;82.65
9822;BME280;4950;46.042;14.472;2022-07-24T03:58:30;98241.47;;;22.76;83.05
9822;BME280;4950;46.042;14.472;2022-07-24T04:00:56;98238.38;;;22.62;83.83
9822;BME280;4950;46.042;14.472;2022-07-24T04:03:23;98250.63;;;22.52;84.63
9822;BME280;4950;46.042;14.472;2022-07-24T04:05:50;98251.53;;;22.40;84.48
9822;BME280;4950;46.042;14.472;2022-07-24T04:08:16;98249.66;;;22.24;85.26
9822;BME280;4950;46.042;14.472;2022-07-24T04:10:43;98249.28;;;22.15;86.02
9822;BME280;4950;46.042;14.472;2022-07-24T04:13:11;98242.53;;;22.07;86.77
9822;BME280;4950;46.042;14.472;2022-07-24T04:15:37;98236.84;;;22.16;86.82
9822;BME280;4950;46.042;14.472;2022-07-24T04:18:04;98238.88;;;22.25;86.47
9822;BME280;4950;46.042;14.472;2022-07-24T04:20:30;98235.59;;;22.35;86.01
9822;BME280;4950;46.042;14.472;2022-07-24T04:22:57;98234.06;;;22.39;86.56
9822;BME280;4950;46.042;14.472;2022-07-24T04:25:24;98244.22;;;22.47;85.93
9822;BME280;4950;46.042;14.472;2022-07-24T04:27:50;98237.47;;;22.57;85.69
9822;BME280;4950;46.042;14.472;2022-07-24T04:30:18;98248.06;;;22.57;86.00
9822;BME280;4950;46.042;14.472;2022-07-24T04:32:45;98247.66;;;22.65;85.57
9822;BME280;4950;46.042;14.472;2022-07-24T04:35:11;98250.63;;;22.68;85.25
9822;BME280;4950;46.042;14.472;2022-07-24T04:37:38;98251.50;;;22.74;85.02
9822;BME280;4950;46.042;14.472;2022-07-24T04:40:05;98256.22;;;22.72;85.16
9822;BME280;4950;46.042;14.472;2022-07-24T04:42:32;98265.78;;;22.73;85.45
9822;BME280;4950;46.042;14.472;2022-07-24T04:44:58;98267.38;;;22.74;84.92
9822;BME280;4950;46.042;14.472;2022-07-24T04:47:26;98278.38;;;22.66;85.26
9822;BME280;4950;46.042;14.472;2022-07-24T04:49:53;98282.06;;;22.65;85.14
9822;BME280;4950;46.042;14.472;2022-07-24T04:52:19;98268.34;;;22.68;84.93
9822;BME280;4950;46.042;14.472;2022-07-24T04:54:46;98275.78;;;22.71;84.90
9822;BME280;4950;46.042;14.472;2022-07-24T04:57:13;98286.69;;;22.75;84.88
9822;BME280;4950;46.042;14.472;2022-07-24T04:59:39;98292.88;;;22.80;85.05
9822;BME280;4950;46.042;14.472;2022-07-24T05:02:06;98292.31;;;22.78;85.01
9822;BME280;4950;46.042;14.472;2022-07-24T05:04:34;98291.75;;;22.76;85.16
9822;BME280;4950;46.042;14.472;2022-07-24T05:07:01;98297.94;;;22.82;84.87
9822;BME280;4950;46.042;14.472;2022-07-24T05:09:27;98286.03;;;22.84;85.11
9822;BME280;4950;46.042;14.472;2022-07-24T05:11:54;98290.31;;;22.85;85.37
9822;BME280;4950;46.042;14.472;2022-07-24T05:14:21;98295.66;;;22.91;85.53
9822;BME280;4950;46.042;14.472;2022-07-24T05:16:47;98296.78;;;22.95;85.34
9822;BME280;4950;46.042;14.472;2022-07-24T05:19:14;98302.38;;;22.98;85.83
9822;BME280;4950;46.042;14.472;2022-07-24T05:21:42;98311.47;;;23.02;86.20
9822;BME280;4950;46.042;14.472;2022-07-24T05:24:08;98309.13;;;23.06;85.97
9822;BME280;4950;46.042;14.472;2022-07-24T05:26:35;98313.16;;;23.09;86.10
9822;BME280;4950;46.042;14.472;2022-07-24T05:29:03;98308.75;;;23.14;85.85
9822;BME280;4950;46.042;14.472;2022-07-24T05:31:31;98316.75;;;23.19;86.39
9822;BME280;4950;46.042;14.472;2022-07-24T05:33:58;98315.19;;;23.23;86.06
9822;BME280;4950;46.042;14.472;2022-07-24T05:36:24;98330.09;;;23.30;85.30
9822;BME280;4950;46.042;14.472;2022-07-24T05:38:53;98328.59;;;23.34;85.80
9822;BME280;4950;46.042;14.472;2022-07-24T05:41:19;98322.22;;;23.35;85.63
9822;BME280;4950;46.042;14.472;2022-07-24T05:43:46;98332.34;;;23.38;85.51
9822;BME280;4950;46.042;14.472;2022-07-24T05:46:12;98326.06;;;23.44;85.74
9822;BME280;4950;46.042;14.472;2022-07-24T05:48:39;98321.88;;;23.48;85.15
9822;BME280;4950;46.042;14.472;2022-07-24T05:51:06;98336.00;;;23.54;85.32
9822;BME280;4950;46.042;14.472;2022-07-24T05:53:32;98336.59;;;23.61;86.01
9822;BME280;4950;46.042;14.472;2022-07-24T05:56:00;98327.28;;;23.58;85.40
9822;BME280;4950;46.042;14.472;2022-07-24T05:58:27;98325.19;;;23.60;85.65
9822;BME280;4950;46.042;14.472;2022-07-24T06:00:53;98325.75;;;23.62;85.96
9822;BME280;4950;46.042;14.472;2022-07-24T06:03:20;98327.34;;;23.63;85.67
9822;BME280;4950;46.042;14.472;2022-07-24T06:05:46;98325.50;;;23.64;86.05
9822;BME280;4950;46.042;14.472;2022-07-24T06:08:13;98316.00;;;23.68;85.80
9822;BME280;4950;46.042;14.472;2022-07-24T06:10:40;98307.78;;;23.70;85.85
9822;BME280;4950;46.042;14.472;2022-07-24T06:13:08;98309.44;;;23.76;85.57
9822;BME280;4950;46.042;14.472;2022-07-24T06:15:35;98313.53;;;23.83;85.93
9822;BME280;4950;46.042;14.472;2022-07-24T06:18:01;98316.25;;;23.89;86.26
9822;BME280;4950;46.042;14.472;2022-07-24T06:20:28;98317.03;;;23.89;85.53
9822;BME280;4950;46.042;14.472;2022-07-24T06:22:55;98320.00;;;23.93;84.56
9822;BME280;4950;46.042;14.472;2022-07-24T06:25:21;98319.25;;;23.97;84.58
9822;BME280;4950;46.042;14.472;2022-07-24T06:27:49;98319.00;;;23.99;83.53
9822;BME280;4950;46.042;14.472;2022-07-24T06:30:18;98325.72;;;24.07;82.66
9822;BME280;4950;46.042;14.472;2022-07-24T06:32:47;98330.22;;;24.06;82.71
9822;BME280;4950;46.042;14.472;2022-07-24T06:35:13;98338.97;;;24.07;82.21
9822;BME280;4950;46.042;14.472;2022-07-24T06:37:40;98335.84;;;24.15;82.56
9822;BME280;4950;46.042;14.472;2022-07-24T06:40:08;98335.91;;;24.20;78.80
9822;BME280;4950;46.042;14.472;2022-07-24T06:42:35;98330.63;;;24.25;77.33
9822;BME280;4950;46.042;14.472;2022-07-24T06:45:02;98333.13;;;24.37;76.60
9822;BME280;4950;46.042;14.472;2022-07-24T06:47:30;98327.81;;;24.37;75.00
9822;BME280;4950;46.042;14.472;2022-07-24T06:49:56;98317.75;;;24.39;74.59
9822;BME280;4950;46.042;14.472;2022-07-24T06:52:23;98321.25;;;24.44;74.76
9822;BME280;4950;46.042;14.472;2022-07-24T06:54:50;98321.09;;;24.51;74.73
9822;BME280;4950;46.042;14.472;2022-07-24T06:57:16;98322.72;;;24.57;74.07
9822;BME280;4950;46.042;14.472;2022-07-24T06:59:43;98333.09;;;24.64;73.57
9822;BME280;4950;46.042;14.472;2022-07-24T07:02:10;98326.22;;;24.68;72.98
9822;BME280;4950;46.042;14.472;2022-07-24T07:04:38;98331.59;;;24.73;72.19
9822;BME280;4950;46.042;14.472;2022-07-24T07:07:04;98324.66;;;24.72;72.02
9822;BME280;4950;46.042;14.472;2022-07-24T07:09:31;98329.72;;;24.69;72.68
9822;BME280;4950;46.042;14.472;2022-07-24T07:11:57;98325.50;;;24.73;73.21
9822;BME280;4950;46.042;14.472;2022-07-24T07:14:24;98327.91;;;24.79;72.87
9822;BME280;4950;46.042;14.472;2022-07-24T07:16:50;98326.88;;;24.80;73.23
9822;BME280;4950;46.042;14.472;2022-07-24T07:19:17;98323.19;;;24.87;72.53
9822;BME280;4950;46.042;14.472;2022-07-24T07:21:45;98322.44;;;24.96;71.79
9822;BME280;4950;46.042;14.472;2022-07-24T07:24:12;98327.22;;;24.94;72.56
9822;BME280;4950;46.042;14.472;2022-07-24T07:26:38;98324.72;;;24.77;72.89
9822;BME280;4950;46.042;14.472;2022-07-24T07:29:05;98327.13;;;24.79;73.01
9822;BME280;4950;46.042;14.472;2022-07-24T07:31:31;98322.00;;;24.67;73.44
9822;BME280;4950;46.042;14.472;2022-07-24T07:33:58;98319.91;;;24.74;73.91
9822;BME280;4950;46.042;14.472;2022-07-24T07:36:25;98327.06;;;24.69;74.89
9822;BME280;4950;46.042;14.472;2022-07-24T07:38:53;98324.94;;;24.71;74.56
9822;BME280;4950;46.042;14.472;2022-07-24T07:41:20;98327.06;;;24.74;73.98
9822;BME280;4950;46.042;14.472;2022-07-24T07:43:46;98324.22;;;24.86;73.58
9822;BME280;4950;46.042;14.472;2022-07-24T07:46:13;98317.63;;;24.93;72.45
9822;BME280;4950;46.042;14.472;2022-07-24T07:48:40;98318.66;;;24.87;72.55
9822;BME280;4950;46.042;14.472;2022-07-24T07:51:07;98323.69;;;24.83;72.23
9822;BME280;4950;46.042;14.472;2022-07-24T07:53:34;98327.94;;;24.85;73.03
9822;BME280;4950;46.042;14.472;2022-07-24T07:56:02;98329.53;;;24.80;74.23
9822;BME280;4950;46.042;14.472;2022-07-24T07:58:30;98326.81;;;24.75;74.05
9822;BME280;4950;46.042;14.472;2022-07-24T08:00:56;98320.47;;;24.81;75.28
9822;BME280;4950;46.042;14.472;2022-07-24T08:03:23;98323.94;;;24.82;73.80
9822;BME280;4950;46.042;14.472;2022-07-24T08:05:50;98320.97;;;24.73;73.91
9822;BME280;4950;46.042;14.472;2022-07-24T08:08:16;98323.94;;;24.82;73.41
9822;BME280;4950;46.042;14.472;2022-07-24T08:10:43;98321.75;;;24.74;73.80
9822;BME280;4950;46.042;14.472;2022-07-24T08:13:11;98318.63;;;24.82;73.75
9822;BME280;4950;46.042;14.472;2022-07-24T08:15:40;98325.78;;;24.76;73.67
9822;BME280;4950;46.042;14.472;2022-07-24T08:18:07;98323.50;;;24.95;nan
9822;BME280;4950;46.042;14.472;2022-07-24T08:20:33;98330.34;;;24.86;72.36
9822;BME280;4950;46.042;14.472;2022-07-24T08:23:00;98321.09;;;24.94;72.90
9822;BME280;4950;46.042;14.472;2022-07-24T08:25:26;98315.78;;;24.94;73.42
9822;BME280;4950;46.042;14.472;2022-07-24T08:27:53;98319.25;;;24.99;74.20
9822;BME280;4950;46.042;14.472;2022-07-24T08:30:21;98306.94;;;25.26;71.81
9822;BME280;4950;46.042;14.472;2022-07-24T08:32:49;98317.34;;;25.32;71.58
9822;BME280;4950;46.042;14.472;2022-07-24T08:35:15;98314.97;;;25.36;72.38
9822;BME280;4950;46.042;14.472;2022-07-24T08:37:42;98319.78;;;25.44;72.03
9822;BME280;4950;46.042;14.472;2022-07-24T08:40:10;98315.03;;;25.51;71.24
9822;BME280;4950;46.042;14.472;2022-07-24T08:42:37;98321.44;;;25.66;71.82
9822;BME280;4950;46.042;14.472;2022-07-24T08:45:05;98313.53;;;25.91;70.25
9822;BME280;4950;46.042;14.472;2022-07-24T08:47:33;98311.94;;;25.90;68.12
9822;BME280;4950;46.042;14.472;2022-07-24T08:50:02;98313.53;;;25.91;68.77
9822;BME280;4950;46.042;14.472;2022-07-24T08:52:29;98318.88;;;25.91;68.17
9822;BME280;4950;46.042;14.472;2022-07-24T08:54:56;98318.00;;;25.75;69.14
9822;BME280;4950;46.042;14.472;2022-07-24T08:57:23;98304.47;;;25.87;69.47
9822;BME280;4950;46.042;14.472;2022-07-24T08:59:49;98308.75;;;25.93;65.16
9822;BME280;4950;46.042;14.472;2022-07-24T09:02:16;98307.44;;;26.01;66.55
9822;BME280;4950;46.042;14.472;2022-07-24T09:04:46;98323.69;;;26.10;67.51
9822;BME280;4950;46.042;14.472;2022-07-24T09:07:14;98315.72;;;26.15;66.07
9822;BME280;4950;46.042;14.472;2022-07-24T09:09:43;98321.56;;;26.22;64.88
9822;BME280;4950;46.042;14.472;2022-07-24T09:12:12;98318.13;;;26.32;65.12
9822;BME280;4950;46.042;14.472;2022-07-24T09:14:40;98320.00;;;26.47;65.05
9822;BME280;4950;46.042;14.472;2022-07-24T09:17:09;98318.66;;;26.59;63.99
9822;BME280;4950;46.042;14.472;2022-07-24T09:19:47;98326.13;;;26.63;63.88
9822;BME280;4950;46.042;14.472;2022-07-24T09:22:32;98326.38;;;26.51;62.99
9822;BME280;4950;46.042;14.472;2022-07-24T09:25:07;98318.13;;;26.52;64.29
9822;BME280;4950;46.042;14.472;2022-07-24T09:27:35;98319.47;;;26.45;64.67
9822;BME280;4950;46.042;14.472;2022-07-24T09:30:03;98320.53;;;26.38;65.29
9822;BME280;4950;46.042;14.472;2022-07-24T09:32:30;98318.66;;;26.39;66.15
9822;BME280;4950;46.042;14.472;2022-07-24T09:34:59;98317.06;;;26.38;65.82
9822;BME280;4950;46.042;14.472;2022-07-24T09:37:26;98313.06;;;26.35;65.22
9822;BME280;4950;46.042;14.472;2022-07-24T09:40:05;98311.75;;;26.43;66.05
9822;BME280;4950;46.042;14.472;2022-07-24T09:42:33;98322.91;;;26.66;63.82
9822;BME280;4950;46.042;14.472;2022-07-24T09:45:06;98311.72;;;26.53;63.59
9822;BME280;4950;46.042;14.472;2022-07-24T09:47:34;98312.56;;;26.38;63.37
9822;BME280;4950;46.042;14.472;2022-07-24T09:50:12;98317.06;;;26.48;62.84
9822;BME280;4950;46.042;14.472;2022-07-24T09:52:40;98310.94;;;26.58;63.21
9822;BME280;4950;46.042;14.472;2022-07-24T09:55:20;98305.88;;;26.67;63.77
9822;BME280;4950;46.042;14.472;2022-07-24T09:57:47;98310.94;;;26.73;64.23
9822;BME280;4950;46.042;14.472;2022-07-24T10:00:15;98309.59;;;26.66;64.08
9822;BME280;4950;46.042;14.472;2022-07-24T10:02:43;98309.09;;;26.74;64.33
9822;BME280;4950;46.042;14.472;2022-07-24T10:05:13;98304.78;;;26.83;63.95
9822;BME280;4950;46.042;14.472;2022-07-24T10:07:41;98302.94;;;26.78;64.68
9822;BME280;4950;46.042;14.472;2022-07-24T10:10:09;98304.78;;;26.88;64.15
9822;BME280;4950;46.042;14.472;2022-07-24T10:12:36;98306.09;;;26.91;64.66
9822;BME280;4950;46.042;14.472;2022-07-24T10:15:04;98294.38;;;26.92;64.30
9822;BME280;4950;46.042;14.472;2022-07-24T10:17:48;98311.13;;;27.13;61.66
9822;BME280;4950;46.042;14.472;2022-07-24T10:20:36;98306.63;;;27.03;59.65
9822;BME280;4950;46.042;14.472;2022-07-24T10:23:05;98309.81;;;27.05;59.93
9822;BME280;4950;46.042;14.472;2022-07-24T10:25:42;98301.25;;;27.13;60.23
9822;BME280;4950;46.042;14.472;2022-07-24T10:28:25;98301.19;;;27.24;60.59
9822;BME280;4950;46.042;14.472;2022-07-24T10:30:59;98289.47;;;27.30;59.44
9822;BME280;4950;46.042;14.472;2022-07-24T10:33:26;98286.19;;;27.48;58.11
9822;BME280;4950;46.042;14.472;2022-07-24T10:35:54;98277.88;;;27.55;58.57
9822;BME280;4950;46.042;14.472;2022-07-24T10:38:29;98283.16;;;27.65;58.40
9822;BME280;4950;46.042;14.472;2022-07-24T10:41:02;98272.69;;;27.79;57.73
9822;BME280;4950;46.042;14.472;2022-07-24T10:43:31;98274.72;;;27.98;57.75
9822;BME280;4950;46.042;14.472;2022-07-24T10:46:11;98275.78;;;27.96;55.72
9822;BME280;4950;46.042;14.472;2022-07-24T10:48:38;98270.69;;;28.00;56.87
9822;BME280;4950;46.042;14.472;2022-07-24T10:51:09;98263.66;;;28.14;56.84
9822;BME280;4950;46.042;14.472;2022-07-24T10:53:48;98258.78;;;28.22;56.00
9822;BME280;4950;46.042;14.472;2022-07-24T10:56:26;98271.94;;;28.13;54.55
9822;BME280;4950;46.042;14.472;2022-07-24T10:59:01;98268.00;;;28.05;54.73
9822;BME280;4950;46.042;14.472;2022-07-24T11:01:32;98261.78;;;28.15;55.46
9822;BME280;4950;46.042;14.472;2022-07-24T11:03:59;98270.31;;;28.17;55.46
9822;BME280;4950;46.042;14.472;2022-07-24T11:06:44;98267.88;;;28.21;55.50
9822;BME280;4950;46.042;14.472;2022-07-24T11:09:11;98256.09;;;28.22;53.71
9822;BME280;4950;46.042;14.472;2022-07-24T11:14:47;98235.75;;;28.26;54.49
9822;BME280;4950;46.042;14.472;2022-07-24T11:17:39;98260.09;;;28.24;54.45
9822;BME280;4950;46.042;14.472;2022-07-24T11:20:07;98244.47;;;28.42;52.86
9822;BME280;4950;46.042;14.472;2022-07-24T11:22:41;98232.19;;;28.35;53.78
9822;BME280;4950;46.042;14.472;2022-07-24T11:25:12;98243.09;;;28.44;53.88
9822;BME280;4950;46.042;14.472;2022-07-24T11:27:56;98243.59;;;28.46;53.61
9822;BME280;4950;46.042;14.472;2022-07-24T11:30:24;98227.25;;;28.53;53.88
9822;BME280;4950;46.042;14.472;2022-07-24T11:32:51;98231.66;;;28.39;52.77
9822;BME280;4950;46.042;14.472;2022-07-24T11:35:26;98232.63;;;28.48;53.55
9822;BME280;4950;46.042;14.472;2022-07-24T11:37:55;98226.34;;;28.63;53.72
9822;BME280;4950;46.042;14.472;2022-07-24T11:40:22;98219.53;;;28.75;53.59
9822;BME280;4950;46.042;14.472;2022-07-24T11:42:54;98216.63;;;28.96;52.46
9822;BME280;4950;46.042;14.472;2022-07-24T11:45:20;98216.34;;;28.98;52.53
9822;BME280;4950;46.042;14.472;2022-07-24T11:47:47;98207.97;;;29.04;51.47
9822;BME280;4950;46.042;14.472;2022-07-24T11:50:14;98206.03;;;29.10;50.86
9822;BME280;4950;46.042;14.472;2022-07-24T11:52:41;98198.56;;;29.07;51.58
9822;BME280;4950;46.042;14.472;2022-07-24T11:55:11;98203.16;;;29.25;51.79
9822;BME280;4950;46.042;14.472;2022-07-24T11:57:40;98191.69;;;29.25;49.83
9822;BME280;4950;46.042;14.472;2022-07-24T12:00:09;98202.97;;;29.22;50.46
9822;BME280;4950;46.042;14.472;2022-07-24T12:02:36;98189.50;;;29.27;51.02
9822;BME280;4950;46.042;14.472;2022-07-24T12:05:04;98172.25;;;29.38;50.18
9822;BME280;4950;46.042;14.472;2022-07-24T12:07:30;98179.88;;;29.45;48.56
9822;BME280;4950;46.042;14.472;2022-07-24T12:09:58;98172.28;;;29.71;48.00
9822;BME280;4950;46.042;14.472;2022-07-24T12:12:29;98191.50;;;29.92;47.76
9822;BME280;4950;46.042;14.472;2022-07-24T12:15:01;98185.91;;;29.75;45.66
9822;BME280;4950;46.042;14.472;2022-07-24T12:17:29;98167.72;;;29.71;45.69
9822;BME280;4950;46.042;14.472;2022-07-24T12:19:57;98178.16;;;29.73;46.56
9822;BME280;4950;46.042;14.472;2022-07-24T12:22:26;98166.06;;;29.76;46.02
9822;BME280;4950;46.042;14.472;2022-07-24T12:24:54;98167.34;;;29.78;46.03
9822;BME280;4950;46.042;14.472;2022-07-24T12:27:39;98169.88;;;29.69;44.42
9822;BME280;4950;46.042;14.472;2022-07-24T12:30:31;98164.09;;;29.62;45.65
9822;BME280;4950;46.042;14.472;2022-07-24T12:33:00;98155.44;;;29.70;45.91
9822;BME280;4950;46.042;14.472;2022-07-24T12:35:30;98159.25;;;29.83;46.21
9822;BME280;4950;46.042;14.472;2022-07-24T12:37:57;98157.25;;;29.75;45.07
9822;BME280;4950;46.042;14.472;2022-07-24T12:40:27;98150.28;;;29.74;44.60
9822;BME280;4950;46.042;14.472;2022-07-24T12:43:06;98140.50;;;29.83;46.06
9822;BME280;4950;46.042;14.472;2022-07-24T12:45:32;98147.78;;;29.97;46.55
9822;BME280;4950;46.042;14.472;2022-07-24T12:48:20;98145.63;;;30.12;45.61
9822;BME280;4950;46.042;14.472;2022-07-24T12:51:07;98137.72;;;30.21;45.32
9822;BME280;4950;46.042;14.472;2022-07-24T12:53:36;98134.06;;;30.31;45.31
9822;BME280;4950;46.042;14.472;2022-07-24T12:56:05;98132.25;;;30.40;44.90
9822;BME280;4950;46.042;14.472;2022-07-24T12:58:54;98129.34;;;30.23;44.88
9822;BME280;4950;46.042;14.472;2022-07-24T13:01:22;98133.50;;;30.29;45.10
9822;BME280;4950;46.042;14.472;2022-07-24T13:03:51;98120.69;;;30.31;45.26
9822;BME280;4950;46.042;14.472;2022-07-24T13:06:19;98125.63;;;30.38;45.03
9822;BME280;4950;46.042;14.472;2022-07-24T13:08:56;98117.25;;;30.25;43.94
9822;BME280;4950;46.042;14.472;2022-07-24T13:11:22;98118.97;;;30.21;44.96
9822;BME280;4950;46.042;14.472;2022-07-24T13:13:49;98114.88;;;30.10;45.06
9822;BME280;4950;46.042;14.472;2022-07-24T13:16:17;98113.88;;;30.06;44.78
9822;BME280;4950;46.042;14.472;2022-07-24T13:18:44;98109.31;;;30.20;45.03